Terminal Aerodrome Forecast
Issued by NWS

Home | Current Version | Previous Version | Text Only | Print | Product List | Glossary On
Versions: 1 2 3 4 5 6 7 8 9 10 11 12 13 14 15 16
000
FTUS44 KLZK 221700
TAFHRO
TAF
KHRO 221734Z 2218/2318 13008KT P6SM FEW100 BKN250
     FM230000 12005KT P6SM VCSH SCT050 BKN100 OVC250
     FM230600 13005KT P6SM VCSH BKN050 OVC100 PROB30 2306/2312 -SHRA
      OVC050=

USA.gov is the U.S. government's official web portal to all federal, state and local government web resources and services.